Montrose, Colorado
Current Conditions -  °F | °C
As of 12:53 AM on Monday 22 Dec 2014 (Local Time) from KMTJ Reporting Station
Haze Haze  
Wind Chill: 23°   Ceiling: 1000
Heat Index: 30°   Visibility: 3mi
Dew Point: 30°   Wind: 7mph
Humidity: 100%   Direction: 150°SSE
Pressure: 29.9"   Gusts: NA
Location:  38.48°N, 107.87°W
Report Text: KMTJ 220753Z AUTO 15006KT 3SM BR SCT001 BKN010 M01/M01 A2990 RMK AO2 SLP123 T10111011
Loading
Personal Weather Stations






























Interactive Weather Map New forecast layout! Learn more

10-Day Weather Forecast

Advertisements
Track Severe Weather on mobile